createdAt,value
2019-01-31T00:01:47.358Z,97.29
2019-01-31T00:04:25.404Z,97.35
2019-01-31T00:07:06.901Z,97.43
2019-01-31T00:09:44.880Z,97.41
2019-01-31T00:12:20.079Z,97.44
2019-01-31T00:14:54.635Z,97.37
2019-01-31T00:17:44.438Z,97.35
2019-01-31T00:20:34.047Z,97.11
2019-01-31T00:23:05.628Z,96.79
2019-01-31T00:25:52.191Z,96.74
2019-01-31T00:28:29.656Z,96.87
2019-01-31T00:31:04.131Z,96.99
2019-01-31T00:33:35.660Z,97.03
2019-01-31T00:36:13.310Z,96.98
2019-01-31T00:38:57.285Z,97.03
2019-01-31T00:41:46.852Z,97.14
2019-01-31T00:44:24.170Z,97.36
2019-01-31T00:47:04.603Z,97.46
2019-01-31T00:49:45.205Z,97.53
2019-01-31T00:52:34.654Z,97.49
2019-01-31T00:55:23.964Z,97.48
2019-01-31T00:57:58.227Z,97.58
2019-01-31T01:00:38.442Z,97.64
2019-01-31T01:03:26.799Z,97.71
2019-01-31T01:06:20.918Z,97.91
2019-01-31T01:09:07.596Z,98.02
2019-01-31T01:11:34.419Z,98.05
2019-01-31T01:14:11.801Z,98.06
2019-01-31T01:16:55.216Z,98.11
2019-01-31T01:19:38.877Z,98.09
2019-01-31T01:22:15.929Z,98.03
2019-01-31T01:24:53.249Z,97.85
2019-01-31T01:27:36.523Z,97.80
2019-01-31T01:30:20.205Z,97.74
2019-01-31T01:32:54.339Z,97.66
2019-01-31T01:35:31.622Z,97.63
2019-01-31T01:38:06.228Z,97.56
2019-01-31T01:40:40.983Z,97.53
2019-01-31T01:43:12.511Z,97.47
2019-01-31T01:45:59.240Z,97.45
2019-01-31T01:48:33.651Z,97.35
2019-01-31T01:51:17.210Z,97.37
2019-01-31T01:54:19.073Z,97.36
2019-01-31T01:56:50.671Z,97.43
2019-01-31T01:59:25.060Z,97.41
2019-01-31T02:02:14.455Z,97.37
2019-01-31T02:04:57.890Z,97.30
2019-01-31T02:07:38.538Z,97.21
2019-01-31T02:10:12.910Z,97.29
2019-01-31T02:13:00.676Z,97.37
2019-01-31T02:15:48.310Z,97.37
2019-01-31T02:18:28.803Z,97.51
2019-01-31T02:21:18.382Z,97.46
2019-01-31T02:23:58.761Z,97.46
2019-01-31T02:26:36.271Z,97.47
2019-01-31T02:29:19.682Z,97.38
2019-01-31T02:32:00.112Z,97.38
2019-01-31T02:34:40.269Z,97.36
2019-01-31T02:37:14.476Z,97.37
2019-01-31T02:39:49.079Z,97.32
2019-01-31T02:42:22.089Z,97.33
2019-01-31T02:44:56.213Z,97.33
2019-01-31T02:47:45.842Z,97.21
2019-01-31T02:50:35.320Z,97.01
2019-01-31T02:53:25.403Z,96.94
2019-01-31T02:56:22.448Z,96.83
2019-01-31T02:59:03.075Z,96.70
2019-01-31T03:01:43.380Z,96.71
2019-01-31T03:04:15.042Z,96.62
2019-01-31T03:06:46.752Z,96.55
2019-01-31T03:09:21.240Z,96.31
2019-01-31T03:11:58.875Z,96.18
2019-01-31T03:14:30.478Z,96.07
2019-01-31T03:17:23.137Z,96.08
2019-01-31T03:20:12.510Z,96.12
2019-01-31T03:22:47.010Z,95.89
2019-01-31T03:25:27.167Z,95.85
2019-01-31T03:28:31.707Z,95.90
2019-01-31T03:31:21.280Z,95.89
2019-01-31T03:34:04.683Z,95.68
2019-01-31T03:36:36.271Z,95.51
2019-01-31T03:39:19.944Z,95.43
2019-01-31T03:42:09.817Z,95.43
2019-01-31T03:44:44.409Z,95.51
2019-01-31T03:47:18.742Z,95.70
2019-01-31T03:49:53.299Z,95.92
2019-01-31T03:52:53.205Z,96.04
2019-01-31T03:55:27.736Z,96.14
2019-01-31T03:58:08.219Z,96.07
2019-01-31T04:00:48.670Z,96.06
2019-01-31T04:03:26.088Z,95.97
2019-01-31T04:05:57.674Z,95.89
2019-01-31T04:08:26.131Z,95.77
2019-01-31T04:10:54.657Z,95.95
2019-01-31T04:13:22.933Z,96.05
2019-01-31T04:15:51.334Z,96.06
2019-01-31T04:18:19.777Z,96.13
2019-01-31T04:20:51.074Z,96.09
2019-01-31T04:23:18.447Z,96.19
2019-01-31T04:25:46.803Z,96.26
2019-01-31T04:28:15.245Z,96.35
2019-01-31T04:30:43.604Z,96.50
2019-01-31T04:33:14.150Z,96.61
2019-01-31T04:35:42.556Z,96.46
2019-01-31T04:38:10.843Z,96.54
2019-01-31T04:40:39.275Z,96.64
2019-01-31T04:43:07.689Z,96.74
2019-01-31T04:45:35.987Z,96.89
2019-01-31T04:48:04.612Z,96.92
2019-01-31T04:50:33.152Z,96.96
2019-01-31T04:53:01.605Z,96.93
2019-01-31T04:55:30.068Z,96.85
2019-01-31T04:57:58.430Z,96.71
2019-01-31T05:00:26.787Z,96.78
2019-01-31T05:02:55.202Z,96.73
2019-01-31T05:05:23.586Z,96.66
2019-01-31T05:07:53.290Z,96.65
2019-01-31T05:10:21.637Z,96.69
2019-01-31T05:12:50.051Z,96.63
2019-01-31T05:15:18.360Z,96.66
2019-01-31T05:17:46.729Z,96.64
2019-01-31T05:20:17.249Z,96.68
2019-01-31T05:22:45.682Z,96.70
2019-01-31T05:25:14.809Z,96.51
2019-01-31T05:27:43.285Z,96.39
2019-01-31T05:30:14.156Z,96.07
2019-01-31T05:32:42.561Z,96.04
2019-01-31T05:35:11.871Z,96.06
2019-01-31T05:37:40.291Z,96.31
2019-01-31T05:40:12.054Z,96.12
2019-01-31T05:42:40.477Z,96.20
2019-01-31T05:45:20.333Z,96.25
2019-01-31T05:47:57.764Z,96.10
2019-01-31T05:50:28.293Z,96.08
2019-01-31T05:52:56.724Z,96.03
2019-01-31T05:55:25.097Z,96.02
2019-01-31T05:57:53.386Z,96.22
2019-01-31T06:00:25.106Z,96.11
2019-01-31T06:02:53.430Z,96.00
2019-01-31T06:05:21.705Z,95.87
2019-01-31T06:07:50.060Z,95.82
2019-01-31T06:10:18.470Z,95.73
2019-01-31T06:12:46.863Z,95.70
2019-01-31T06:15:18.671Z,95.76
2019-01-31T06:17:47.122Z,95.66
2019-01-31T06:20:23.517Z,95.32
2019-01-31T06:22:51.832Z,95.40
2019-01-31T06:25:20.175Z,95.53
2019-01-31T06:27:48.588Z,95.43
2019-01-31T06:30:18.565Z,95.50
2019-01-31T06:32:47.002Z,95.48
2019-01-31T06:35:15.580Z,95.52
2019-01-31T06:37:43.869Z,95.65
2019-01-31T06:40:15.475Z,96.42
2019-01-31T06:42:44.025Z,96.42
2019-01-31T06:45:17.496Z,96.51
2019-01-31T06:47:45.987Z,96.55
2019-01-31T06:50:14.311Z,96.59
2019-01-31T06:52:42.651Z,96.68
2019-01-31T06:55:12.304Z,96.77
2019-01-31T06:57:40.744Z,96.98
2019-01-31T07:00:20.814Z,96.96
2019-01-31T07:02:49.106Z,97.11
2019-01-31T07:05:17.414Z,96.95
2019-01-31T07:07:45.813Z,96.99
2019-01-31T07:10:20.225Z,97.03
2019-01-31T07:12:48.551Z,97.00
2019-01-31T07:15:16.978Z,96.97
2019-01-31T07:17:45.338Z,97.04
2019-01-31T07:20:17.540Z,97.08
2019-01-31T07:22:46.803Z,97.07
2019-01-31T07:25:22.145Z,97.06
2019-01-31T07:27:53.019Z,97.04
2019-01-31T07:30:23.012Z,96.93
2019-01-31T07:32:51.286Z,97.11
2019-01-31T07:35:19.651Z,97.08
2019-01-31T07:37:47.929Z,97.09
2019-01-31T07:40:22.104Z,97.08
2019-01-31T07:42:50.456Z,96.93
2019-01-31T07:45:24.352Z,97.00
2019-01-31T07:47:52.780Z,97.05
2019-01-31T07:50:21.119Z,97.05
2019-01-31T07:52:49.474Z,97.06
2019-01-31T07:55:17.987Z,97.08
2019-01-31T07:57:46.266Z,97.08
2019-01-31T08:00:20.787Z,97.31
2019-01-31T08:02:49.170Z,97.35
2019-01-31T08:05:20.342Z,97.48
2019-01-31T08:07:49.459Z,97.44
2019-01-31T08:10:32.764Z,97.47
2019-01-31T08:13:01.041Z,97.29
2019-01-31T08:15:29.331Z,97.13
2019-01-31T08:17:57.720Z,96.87
2019-01-31T08:20:26.097Z,96.86
2019-01-31T08:22:54.399Z,97.17
2019-01-31T08:25:25.337Z,97.13
2019-01-31T08:27:54.820Z,97.17
2019-01-31T08:30:31.982Z,97.28
2019-01-31T08:33:00.271Z,97.30
2019-01-31T08:35:28.649Z,97.29
2019-01-31T08:37:57.045Z,97.07
2019-01-31T08:40:25.348Z,96.96
2019-01-31T08:42:53.638Z,96.65
2019-01-31T08:45:22.046Z,96.64
2019-01-31T08:47:50.407Z,96.49
2019-01-31T08:50:21.467Z,96.20
2019-01-31T08:52:52.769Z,96.12
2019-01-31T08:55:22.195Z,96.08
2019-01-31T08:57:50.557Z,96.20
2019-01-31T09:00:21.484Z,96.22
2019-01-31T09:02:50.160Z,96.23
2019-01-31T09:05:25.869Z,96.24
2019-01-31T09:07:54.733Z,96.06
2019-01-31T09:10:28.987Z,96.08
2019-01-31T09:12:59.399Z,96.12
2019-01-31T09:15:28.939Z,96.03
2019-01-31T09:17:57.278Z,95.88
2019-01-31T09:20:29.127Z,95.80
2019-01-31T09:23:12.418Z,95.78
2019-01-31T09:26:10.498Z,95.89
2019-01-31T09:28:45.080Z,95.89
2019-01-31T09:31:34.102Z,95.81
2019-01-31T09:34:08.604Z,95.85
2019-01-31T09:37:07.975Z,95.71
2019-01-31T09:39:54.537Z,95.59
2019-01-31T09:42:43.996Z,95.55
2019-01-31T09:45:15.551Z,95.47
2019-01-31T09:47:55.785Z,95.44
2019-01-31T09:50:50.886Z,95.25
2019-01-31T09:53:29.103Z,94.89
2019-01-31T09:56:12.548Z,94.50
2019-01-31T09:59:03.652Z,94.20
2019-01-31T10:02:09.982Z,93.90
2019-01-31T10:04:44.109Z,93.92
2019-01-31T10:07:21.667Z,93.78
2019-01-31T10:10:14.316Z,93.80
2019-01-31T10:13:04.938Z,93.83
2019-01-31T10:15:51.510Z,93.88
2019-01-31T10:18:41.644Z,93.85
2019-01-31T10:21:16.226Z,93.84
2019-01-31T10:23:59.863Z,94.18
2019-01-31T10:26:56.203Z,94.56
2019-01-31T10:29:46.146Z,94.64
2019-01-31T10:32:34.707Z,94.71
2019-01-31T10:35:18.163Z,93.83
2019-01-31T10:37:52.441Z,93.16
2019-01-31T10:40:26.909Z,92.40
2019-01-31T10:43:12.794Z,91.98
2019-01-31T10:45:47.286Z,91.40
2019-01-31T10:48:21.767Z,91.12
2019-01-31T10:51:08.455Z,90.83
2019-01-31T10:53:40.093Z,91.80
2019-01-31T10:56:38.427Z,89.59
2019-01-31T10:59:10.039Z,90.48
2019-01-31T11:01:50.190Z,90.22
2019-01-31T11:04:36.636Z,89.13
2019-01-31T11:07:24.973Z,88.29
2019-01-31T11:09:59.082Z,88.73
2019-01-31T11:13:00.860Z,88.98
2019-01-31T11:15:44.496Z,88.84
2019-01-31T11:18:22.096Z,88.74
2019-01-31T11:20:56.545Z,88.49
2019-01-31T11:23:28.928Z,88.21
2019-01-31T11:26:12.631Z,88.53
2019-01-31T11:29:13.995Z,87.36
2019-01-31T11:31:58.612Z,87.29
2019-01-31T11:34:42.242Z,87.67
2019-01-31T11:37:46.688Z,87.25
2019-01-31T11:40:55.191Z,86.96
2019-01-31T11:43:35.669Z,85.38
2019-01-31T11:46:22.565Z,85.38
2019-01-31T11:48:54.105Z,85.58
2019-01-31T11:51:49.683Z,85.58
2019-01-31T11:54:24.214Z,85.48
2019-01-31T11:57:15.240Z,86.01
2019-01-31T11:59:43.591Z,86.38
2019-01-31T12:02:12.124Z,86.55
2019-01-31T12:04:40.568Z,86.43
2019-01-31T12:07:08.979Z,86.75
2019-01-31T12:09:37.254Z,86.57
2019-01-31T12:12:05.625Z,85.95
2019-01-31T12:14:33.968Z,85.10
2019-01-31T12:17:02.335Z,85.26
2019-01-31T12:19:30.624Z,85.01
2019-01-31T12:21:59.025Z,83.55
2019-01-31T12:24:27.493Z,83.27
2019-01-31T12:26:55.821Z,83.67
2019-01-31T12:29:24.144Z,82.47
2019-01-31T12:31:52.487Z,83.04
2019-01-31T12:34:20.927Z,83.39
2019-01-31T12:36:49.292Z,83.50
2019-01-31T12:39:17.675Z,82.48
2019-01-31T12:41:46.092Z,80.18
2019-01-31T12:44:14.435Z,79.49
2019-01-31T12:46:42.707Z,77.91
2019-01-31T12:49:11.115Z,80.05
2019-01-31T12:51:39.391Z,79.34
2019-01-31T12:54:07.713Z,78.83
2019-01-31T12:56:36.085Z,79.32
2019-01-31T12:59:04.615Z,79.60
2019-01-31T13:01:32.963Z,78.12
2019-01-31T13:04:01.333Z,76.38
2019-01-31T13:06:29.744Z,77.21
2019-01-31T13:08:58.090Z,77.30
2019-01-31T13:11:26.487Z,77.40
2019-01-31T13:13:54.796Z,77.25
2019-01-31T13:16:23.179Z,78.57
2019-01-31T13:18:51.590Z,78.40
2019-01-31T13:21:20.880Z,78.75
2019-01-31T13:23:49.921Z,77.80
2019-01-31T13:26:18.355Z,77.37
2019-01-31T13:28:46.753Z,78.62
2019-01-31T13:31:15.116Z,78.62
2019-01-31T13:33:46.565Z,78.42
2019-01-31T13:36:14.244Z,78.23
2019-01-31T13:38:42.622Z,78.39
2019-01-31T13:41:11.123Z,79.66
2019-01-31T13:43:39.472Z,78.85
2019-01-31T13:46:09.212Z,80.04
2019-01-31T13:48:37.530Z,79.61
2019-01-31T13:51:07.340Z,78.19
2019-01-31T13:53:35.726Z,79.13
2019-01-31T13:56:06.139Z,79.46
2019-01-31T13:58:34.713Z,78.43
2019-01-31T14:01:03.132Z,79.20
2019-01-31T14:03:31.451Z,78.92
2019-01-31T14:05:59.791Z,77.42
2019-01-31T14:08:28.233Z,77.46
2019-01-31T14:10:56.494Z,78.32
2019-01-31T14:13:24.799Z,78.63
2019-01-31T14:15:53.946Z,78.07
2019-01-31T14:18:22.584Z,77.82
2019-01-31T14:20:50.866Z,78.84
2019-01-31T14:23:19.207Z,79.19
2019-01-31T14:25:47.623Z,78.55
2019-01-31T14:28:15.996Z,80.06
2019-01-31T14:30:44.356Z,80.37
2019-01-31T14:33:14.328Z,79.39
2019-01-31T14:35:42.687Z,78.99
2019-01-31T14:38:11.077Z,79.27
2019-01-31T14:40:39.393Z,79.78
2019-01-31T14:43:07.662Z,81.17
2019-01-31T14:45:35.932Z,82.43
2019-01-31T14:48:06.212Z,82.32
2019-01-31T14:50:35.955Z,82.73
2019-01-31T14:53:04.927Z,82.81
2019-01-31T14:55:33.287Z,82.55
2019-01-31T14:58:01.643Z,83.53
2019-01-31T15:00:33.988Z,83.70
2019-01-31T15:03:02.388Z,84.46
2019-01-31T15:05:30.737Z,83.20
2019-01-31T15:07:59.097Z,82.84
2019-01-31T15:10:30.113Z,82.16
2019-01-31T15:12:58.547Z,81.64
2019-01-31T15:15:27.002Z,81.54
2019-01-31T15:17:55.436Z,81.69
2019-01-31T15:20:35.804Z,81.57
2019-01-31T15:22:56.084Z,82.73
2019-01-31T15:25:24.579Z,84.37
2019-01-31T15:27:52.942Z,84.67
2019-01-31T15:30:30.200Z,84.82
2019-01-31T15:32:58.558Z,85.56
2019-01-31T15:35:26.926Z,86.50
2019-01-31T15:37:55.311Z,86.05
2019-01-31T15:40:29.904Z,84.42
2019-01-31T15:42:58.261Z,84.69
2019-01-31T15:45:26.598Z,84.73
2019-01-31T15:47:55.128Z,84.90
2019-01-31T15:50:23.456Z,84.81
2019-01-31T15:52:51.789Z,85.14
2019-01-31T15:55:23.127Z,85.49
2019-01-31T15:57:51.535Z,85.62
2019-01-31T16:00:27.416Z,85.76
2019-01-31T16:02:55.855Z,85.47
2019-01-31T16:05:24.214Z,85.95
2019-01-31T16:07:52.595Z,86.26
2019-01-31T16:10:21.011Z,86.87
2019-01-31T16:12:49.343Z,87.21
2019-01-31T16:15:18.914Z,86.80
2019-01-31T16:17:47.268Z,87.08
2019-01-31T16:20:15.709Z,87.46
2019-01-31T16:22:44.095Z,87.83
2019-01-31T16:25:12.475Z,87.21
2019-01-31T16:27:40.749Z,87.71
2019-01-31T16:30:17.358Z,88.33
2019-01-31T16:32:45.665Z,88.09
2019-01-31T16:35:17.254Z,88.75
2019-01-31T16:37:46.664Z,88.92
2019-01-31T16:40:17.390Z,89.04
2019-01-31T16:42:45.831Z,88.86
2019-01-31T16:45:16.269Z,88.69
2019-01-31T16:47:44.602Z,89.22
2019-01-31T16:50:17.111Z,89.32
2019-01-31T16:52:45.587Z,89.24
2019-01-31T16:55:16.586Z,89.52
2019-01-31T16:57:45.695Z,89.27
2019-01-31T17:00:22.862Z,89.22
2019-01-31T17:02:51.152Z,89.56
2019-01-31T17:05:22.603Z,89.29
2019-01-31T17:07:51.099Z,89.35
2019-01-31T17:10:19.451Z,89.25
2019-01-31T17:12:47.737Z,89.37
2019-01-31T17:15:18.815Z,89.29
2019-01-31T17:17:47.232Z,89.41
2019-01-31T17:20:18.780Z,89.43
2019-01-31T17:22:47.109Z,89.27
2019-01-31T17:25:15.536Z,89.47
2019-01-31T17:27:44.088Z,89.37
2019-01-31T17:30:15.670Z,89.38
2019-01-31T17:32:44.111Z,89.34
2019-01-31T17:35:12.658Z,89.57
2019-01-31T17:37:41.061Z,89.55
2019-01-31T17:40:18.235Z,89.70
2019-01-31T17:42:46.626Z,89.84
2019-01-31T17:45:29.634Z,89.80
2019-01-31T17:47:47.762Z,89.83
2019-01-31T17:50:19.170Z,89.60
2019-01-31T17:52:49.156Z,89.49
2019-01-31T17:55:25.216Z,89.02
2019-01-31T17:57:53.602Z,89.11
2019-01-31T18:00:32.361Z,89.37
2019-01-31T18:03:00.772Z,89.21
2019-01-31T18:05:29.135Z,89.58
2019-01-31T18:07:57.976Z,89.50
2019-01-31T18:10:27.244Z,89.42
2019-01-31T18:12:55.523Z,89.50
2019-01-31T18:15:26.066Z,89.69
2019-01-31T18:17:54.907Z,89.54
2019-01-31T18:20:24.037Z,89.73
2019-01-31T18:22:52.322Z,89.94
2019-01-31T18:25:20.696Z,90.00
2019-01-31T18:27:53.075Z,90.15
2019-01-31T18:30:33.384Z,90.26
2019-01-31T18:33:01.656Z,90.95
2019-01-31T18:35:29.975Z,90.92
2019-01-31T18:37:58.766Z,91.36
2019-01-31T18:40:33.885Z,91.61
2019-01-31T18:43:02.831Z,91.68
2019-01-31T18:45:36.401Z,91.91
2019-01-31T18:48:07.060Z,92.31
2019-01-31T18:50:40.758Z,92.39
2019-01-31T18:53:09.112Z,92.54
2019-01-31T18:55:37.635Z,92.42
2019-01-31T18:58:06.986Z,92.70
2019-01-31T19:00:38.663Z,93.01
2019-01-31T19:03:08.177Z,93.24
2019-01-31T19:05:37.560Z,93.30
2019-01-31T19:08:08.833Z,93.52
2019-01-31T19:10:43.303Z,93.63
2019-01-31T19:13:07.373Z,93.82
2019-01-31T19:15:35.825Z,94.08
2019-01-31T19:18:06.334Z,94.08
2019-01-31T19:20:36.885Z,93.99
2019-01-31T19:23:07.177Z,93.94
2019-01-31T19:25:35.482Z,93.71
2019-01-31T19:28:05.354Z,93.80
2019-01-31T19:30:36.778Z,93.88
2019-01-31T19:33:06.305Z,93.87
2019-01-31T19:35:34.855Z,93.72
2019-01-31T19:38:03.421Z,93.61
2019-01-31T19:40:37.308Z,93.67
2019-01-31T19:43:06.396Z,93.79
2019-01-31T19:45:43.129Z,94.11
2019-01-31T19:48:11.627Z,93.81
2019-01-31T19:50:39.951Z,93.81
2019-01-31T19:53:08.448Z,93.38
2019-01-31T19:55:36.929Z,93.12
2019-01-31T19:58:05.505Z,93.01
2019-01-31T20:00:34.832Z,93.07
2019-01-31T20:03:03.602Z,93.17
2019-01-31T20:05:32.138Z,92.95
2019-01-31T20:08:03.423Z,92.95
2019-01-31T20:10:33.028Z,93.00
2019-01-31T20:13:01.996Z,93.07
2019-01-31T20:15:31.343Z,92.93
2019-01-31T20:17:59.969Z,92.81
2019-01-31T20:20:31.459Z,92.66
2019-01-31T20:23:00.687Z,92.69
2019-01-31T20:25:30.778Z,92.56
2019-01-31T20:28:00.986Z,92.27
2019-01-31T20:30:33.303Z,92.44
2019-01-31T20:33:02.379Z,92.10
2019-01-31T20:35:30.874Z,92.00
2019-01-31T20:37:59.910Z,91.57
2019-01-31T20:40:31.396Z,91.25
2019-01-31T20:43:01.521Z,91.00
2019-01-31T20:45:32.491Z,91.30
2019-01-31T20:48:00.883Z,91.49
2019-01-31T20:50:32.799Z,91.56
2019-01-31T20:53:01.408Z,91.43
2019-01-31T20:55:30.162Z,91.22
2019-01-31T20:57:58.440Z,91.24
2019-01-31T21:00:38.006Z,91.09
2019-01-31T21:03:08.626Z,90.98
2019-01-31T21:05:37.119Z,91.08
2019-01-31T21:08:06.918Z,90.76
2019-01-31T21:10:35.250Z,90.55
2019-01-31T21:13:03.938Z,90.44
2019-01-31T21:15:32.391Z,90.03
2019-01-31T21:18:00.684Z,89.20
2019-01-31T21:20:29.117Z,89.72
2019-01-31T21:22:57.389Z,89.79
2019-01-31T21:25:25.730Z,89.77
2019-01-31T21:27:54.060Z,89.20
2019-01-31T21:30:32.403Z,89.34
2019-01-31T21:33:16.765Z,89.29
2019-01-31T21:35:46.087Z,88.85
2019-01-31T21:38:14.605Z,88.48
2019-01-31T21:40:43.193Z,88.61
2019-01-31T21:43:11.564Z,88.37
2019-01-31T21:45:40.926Z,87.94
2019-01-31T21:48:10.407Z,87.97
2019-01-31T21:50:47.443Z,87.78
2019-01-31T21:53:17.705Z,87.96
2019-01-31T21:55:58.368Z,87.69
2019-01-31T21:58:34.965Z,87.68
2019-01-31T22:01:11.500Z,87.19
2019-01-31T22:03:40.762Z,86.96
2019-01-31T22:06:09.226Z,86.78
2019-01-31T22:08:37.549Z,86.69
2019-01-31T22:11:06.081Z,86.63
2019-01-31T22:13:34.509Z,87.07
2019-01-31T22:16:03.004Z,86.55
2019-01-31T22:18:31.412Z,86.45
2019-01-31T22:20:59.771Z,86.75
2019-01-31T22:23:28.445Z,86.63
2019-01-31T22:25:56.763Z,86.60
2019-01-31T22:28:25.145Z,86.71
2019-01-31T22:30:53.488Z,86.61
2019-01-31T22:33:23.493Z,86.69
2019-01-31T22:35:51.768Z,86.97
2019-01-31T22:38:20.200Z,86.64
2019-01-31T22:40:48.462Z,86.44
2019-01-31T22:43:16.817Z,86.23
2019-01-31T22:45:45.228Z,86.65
2019-01-31T22:48:13.579Z,86.56
2019-01-31T22:50:42.007Z,86.34
2019-01-31T22:53:10.476Z,86.48
2019-01-31T22:55:38.957Z,86.43
2019-01-31T22:58:07.226Z,86.56
2019-01-31T23:00:49.443Z,86.66
2019-01-31T23:03:17.755Z,86.49
2019-01-31T23:05:46.098Z,86.69
2019-01-31T23:08:14.447Z,86.49
2019-01-31T23:10:42.779Z,86.14
2019-01-31T23:13:11.233Z,86.23
2019-01-31T23:15:39.646Z,86.40
2019-01-31T23:18:08.025Z,86.38
2019-01-31T23:20:36.435Z,86.26
2019-01-31T23:23:04.702Z,86.17
2019-01-31T23:25:39.741Z,86.14
2019-01-31T23:28:03.124Z,86.33
2019-01-31T23:30:31.515Z,86.26
2019-01-31T23:32:59.911Z,86.64
2019-01-31T23:35:28.302Z,86.33
2019-01-31T23:37:56.693Z,86.47
2019-01-31T23:40:25.051Z,86.35
2019-01-31T23:42:53.435Z,86.60
2019-01-31T23:45:21.762Z,86.75
2019-01-31T23:47:50.138Z,87.07
2019-01-31T23:50:18.477Z,87.05
2019-01-31T23:52:46.992Z,86.60
2019-01-31T23:55:18.610Z,86.88
2019-01-31T23:57:46.942Z,87.16
